sensor_id;sensor_type;location;lat;lon;timestamp;pressure;altitude;pressure_sealevel;temperature;humidity
28648;BME280;17137;51.494;-0.262;2023-08-17T00:00:18;49908.68;;;-145.72;85.34
28648;BME280;17137;51.494;-0.262;2023-08-17T00:00:49;49908.31;;;-145.72;85.54
28648;BME280;17137;51.494;-0.262;2023-08-17T00:01:19;49909.54;;;-145.72;85.46
28648;BME280;17137;51.494;-0.262;2023-08-17T00:01:50;49921.99;;;-145.72;85.47
28648;BME280;17137;51.494;-0.262;2023-08-17T00:02:20;49921.13;;;-145.72;85.56
28648;BME280;17137;51.494;-0.262;2023-08-17T00:02:51;49924.33;;;-145.72;85.90
28648;BME280;17137;51.494;-0.262;2023-08-17T00:03:21;49919.16;;;-145.72;85.54
28648;BME280;17137;51.494;-0.262;2023-08-17T00:03:51;49919.16;;;-145.72;85.23
28648;BME280;17137;51.494;-0.262;2023-08-17T00:04:22;49915.58;;;-145.72;85.19
28648;BME280;17137;51.494;-0.262;2023-08-17T00:04:52;49922.98;;;-145.72;85.20
28648;BME280;17137;51.494;-0.262;2023-08-17T00:05:22;49927.91;;;-145.72;85.29
28648;BME280;17137;51.494;-0.262;2023-08-17T00:05:53;49920.14;;;-145.72;85.35
28648;BME280;17137;51.494;-0.262;2023-08-17T00:06:23;49911.52;;;-145.72;85.21
28648;BME280;17137;51.494;-0.262;2023-08-17T00:06:53;49922.24;;;-145.72;85.08
28648;BME280;17137;51.494;-0.262;2023-08-17T00:07:24;49916.20;;;-145.72;85.01
28648;BME280;17137;51.494;-0.262;2023-08-17T00:07:54;49924.95;;;-145.72;84.88
28648;BME280;17137;51.494;-0.262;2023-08-17T00:08:24;49909.79;;;-145.72;84.77
28648;BME280;17137;51.494;-0.262;2023-08-17T00:08:55;49918.17;;;-145.72;84.65
28648;BME280;17137;51.494;-0.262;2023-08-17T00:09:30;49923.10;;;-145.72;84.69
28648;BME280;17137;51.494;-0.262;2023-08-17T00:10:01;49922.85;;;-145.72;85.11
28648;BME280;17137;51.494;-0.262;2023-08-17T00:10:31;49933.21;;;-145.72;85.03
28648;BME280;17137;51.494;-0.262;2023-08-17T00:11:01;49918.29;;;-145.72;85.24
28648;BME280;17137;51.494;-0.262;2023-08-17T00:11:32;49917.43;;;-145.72;85.08
28648;BME280;17137;51.494;-0.262;2023-08-17T00:12:04;49932.84;;;-145.72;86.13
28648;BME280;17137;51.494;-0.262;2023-08-17T00:12:34;49925.57;;;-145.72;86.00
28648;BME280;17137;51.494;-0.262;2023-08-17T00:13:04;49929.14;;;-145.72;85.94
28648;BME280;17137;51.494;-0.262;2023-08-17T00:13:35;49925.94;;;-145.72;86.21
28648;BME280;17137;51.494;-0.262;2023-08-17T00:14:05;49936.66;;;-145.72;86.60
28648;BME280;17137;51.494;-0.262;2023-08-17T00:14:36;49941.47;;;-145.72;87.62
28648;BME280;17137;51.494;-0.262;2023-08-17T00:15:12;49929.14;;;-145.72;87.11
28648;BME280;17137;51.494;-0.262;2023-08-17T00:15:42;49929.63;;;-145.72;86.83
28648;BME280;17137;51.494;-0.262;2023-08-17T00:16:12;49930.00;;;-145.72;86.62
28648;BME280;17137;51.494;-0.262;2023-08-17T00:16:43;49930.74;;;-145.72;86.47
28648;BME280;17137;51.494;-0.262;2023-08-17T00:17:13;49934.56;;;-145.72;86.40
28648;BME280;17137;51.494;-0.262;2023-08-17T00:17:44;49923.84;;;-145.72;86.25
28648;BME280;17137;51.494;-0.262;2023-08-17T00:18:14;49932.22;;;-145.72;86.09
28648;BME280;17137;51.494;-0.262;2023-08-17T00:18:44;49928.28;;;-145.72;86.32
28648;BME280;17137;51.494;-0.262;2023-08-17T00:19:14;49931.98;;;-145.72;86.80
28648;BME280;17137;51.494;-0.262;2023-08-17T00:19:45;49926.55;;;-145.72;86.44
28648;BME280;17137;51.494;-0.262;2023-08-17T00:20:16;49925.07;;;-145.72;86.33
28648;BME280;17137;51.494;-0.262;2023-08-17T00:20:46;49924.33;;;-145.72;86.30
28648;BME280;17137;51.494;-0.262;2023-08-17T00:21:17;49927.42;;;-145.72;86.62
28648;BME280;17137;51.494;-0.262;2023-08-17T00:21:47;49924.83;;;-145.72;86.44
28648;BME280;17137;51.494;-0.262;2023-08-17T00:22:18;49922.36;;;-145.72;86.49
28648;BME280;17137;51.494;-0.262;2023-08-17T00:22:48;49932.72;;;-145.72;86.82
28648;BME280;17137;51.494;-0.262;2023-08-17T00:23:18;49924.21;;;-145.72;86.67
28648;BME280;17137;51.494;-0.262;2023-08-17T00:23:49;49942.45;;;-145.72;87.08
28648;BME280;17137;51.494;-0.262;2023-08-17T00:24:19;49930.87;;;-145.72;86.68
28648;BME280;17137;51.494;-0.262;2023-08-17T00:24:49;49927.66;;;-145.72;86.40
28648;BME280;17137;51.494;-0.262;2023-08-17T00:25:20;49931.73;;;-145.72;86.92
28648;BME280;17137;51.494;-0.262;2023-08-17T00:25:50;49936.04;;;-145.72;86.83
28648;BME280;17137;51.494;-0.262;2023-08-17T00:26:20;49932.96;;;-145.72;86.51
28648;BME280;17137;51.494;-0.262;2023-08-17T00:26:51;49946.52;;;-145.72;86.80
28648;BME280;17137;51.494;-0.262;2023-08-17T00:27:21;49930.37;;;-145.72;86.55
28648;BME280;17137;51.494;-0.262;2023-08-17T00:27:51;49935.67;;;-145.72;86.62
28648;BME280;17137;51.494;-0.262;2023-08-17T00:28:21;49943.32;;;-145.72;87.43
28648;BME280;17137;51.494;-0.262;2023-08-17T00:28:52;49934.93;;;-145.72;87.31
28648;BME280;17137;51.494;-0.262;2023-08-17T00:29:22;49936.91;;;-145.72;87.71
28648;BME280;17137;51.494;-0.262;2023-08-17T00:29:52;49944.79;;;-145.72;87.88
28648;BME280;17137;51.494;-0.262;2023-08-17T00:30:23;49946.27;;;-145.72;87.90
28648;BME280;17137;51.494;-0.262;2023-08-17T00:30:53;49930.74;;;-145.72;87.66
28648;BME280;17137;51.494;-0.262;2023-08-17T00:31:24;49941.47;;;-145.72;87.29
28648;BME280;17137;51.494;-0.262;2023-08-17T00:31:54;49940.36;;;-145.72;87.26
28648;BME280;17137;51.494;-0.262;2023-08-17T00:32:24;49946.52;;;-145.72;87.20
28648;BME280;17137;51.494;-0.262;2023-08-17T00:32:55;49939.74;;;-145.72;87.28
28648;BME280;17137;51.494;-0.262;2023-08-17T00:33:25;49940.36;;;-145.72;87.33
28648;BME280;17137;51.494;-0.262;2023-08-17T00:33:55;49931.48;;;-145.72;87.47
28648;BME280;17137;51.494;-0.262;2023-08-17T00:34:26;49944.06;;;-145.72;88.17
28648;BME280;17137;51.494;-0.262;2023-08-17T00:34:56;49958.48;;;-145.72;88.94
28648;BME280;17137;51.494;-0.262;2023-08-17T00:35:27;49950.46;;;-145.72;88.84
28648;BME280;17137;51.494;-0.262;2023-08-17T00:35:57;49954.29;;;-145.72;89.34
28648;BME280;17137;51.494;-0.262;2023-08-17T00:36:27;49946.27;;;-145.72;89.03
28648;BME280;17137;51.494;-0.262;2023-08-17T00:36:58;49951.82;;;-145.72;89.33
28648;BME280;17137;51.494;-0.262;2023-08-17T00:37:28;49956.26;;;-145.72;88.99
28648;BME280;17137;51.494;-0.262;2023-08-17T00:37:59;49954.41;;;-145.72;88.45
28648;BME280;17137;51.494;-0.262;2023-08-17T00:38:30;49955.15;;;-145.72;89.46
28648;BME280;17137;51.494;-0.262;2023-08-17T00:39:01;49952.56;;;-145.72;89.76
28648;BME280;17137;51.494;-0.262;2023-08-17T00:39:31;49961.43;;;-145.72;89.66
28648;BME280;17137;51.494;-0.262;2023-08-17T00:40:02;49957.00;;;-145.72;89.67
28648;BME280;17137;51.494;-0.262;2023-08-17T00:40:32;49966.12;;;-145.72;90.22
28648;BME280;17137;51.494;-0.262;2023-08-17T00:41:02;49960.45;;;-145.72;90.12
28648;BME280;17137;51.494;-0.262;2023-08-17T00:41:33;49945.41;;;-145.72;89.76
28648;BME280;17137;51.494;-0.262;2023-08-17T00:42:03;49952.07;;;-145.72;89.69
28648;BME280;17137;51.494;-0.262;2023-08-17T00:42:34;49954.16;;;-145.72;89.47
28648;BME280;17137;51.494;-0.262;2023-08-17T00:43:06;49957.98;;;-145.72;89.35
28648;BME280;17137;51.494;-0.262;2023-08-17T00:43:37;49950.22;;;-145.72;89.23
28648;BME280;17137;51.494;-0.262;2023-08-17T00:44:07;49956.50;;;-145.72;89.73
28648;BME280;17137;51.494;-0.262;2023-08-17T00:44:37;49959.71;;;-145.72;89.84
28648;BME280;17137;51.494;-0.262;2023-08-17T00:45:08;49940.97;;;-145.72;89.52
28648;BME280;17137;51.494;-0.262;2023-08-17T00:45:39;49952.93;;;-145.72;89.49
28648;BME280;17137;51.494;-0.262;2023-08-17T00:46:11;49960.20;;;-145.72;90.33
28648;BME280;17137;51.494;-0.262;2023-08-17T00:46:42;49953.05;;;-145.72;90.02
28648;BME280;17137;51.494;-0.262;2023-08-17T00:47:12;49948.62;;;-145.72;89.73
28648;BME280;17137;51.494;-0.262;2023-08-17T00:47:44;49938.14;;;-145.72;89.49
28648;BME280;17137;51.494;-0.262;2023-08-17T00:48:14;49944.67;;;-145.72;89.16
28648;BME280;17137;51.494;-0.262;2023-08-17T00:48:45;49936.78;;;-145.72;88.86
28648;BME280;17137;51.494;-0.262;2023-08-17T00:49:15;49940.36;;;-145.72;88.74
28648;BME280;17137;51.494;-0.262;2023-08-17T00:50:15;49952.31;;;-145.72;89.32
28648;BME280;17137;51.494;-0.262;2023-08-17T00:50:48;49949.11;;;-145.72;89.77
28648;BME280;17137;51.494;-0.262;2023-08-17T00:51:19;49958.23;;;-145.72;89.73
28648;BME280;17137;51.494;-0.262;2023-08-17T00:51:49;49955.27;;;-145.72;89.33
28648;BME280;17137;51.494;-0.262;2023-08-17T00:52:19;49950.96;;;-145.72;89.11
28648;BME280;17137;51.494;-0.262;2023-08-17T00:52:51;49939.99;;;-145.72;89.00
28648;BME280;17137;51.494;-0.262;2023-08-17T00:53:22;49943.07;;;-145.72;88.84
28648;BME280;17137;51.494;-0.262;2023-08-17T00:53:56;49943.19;;;-145.72;88.63
28648;BME280;17137;51.494;-0.262;2023-08-17T00:54:29;49943.93;;;-145.72;88.31
28648;BME280;17137;51.494;-0.262;2023-08-17T00:55:00;49948.86;;;-145.72;89.14
28648;BME280;17137;51.494;-0.262;2023-08-17T00:55:33;49944.06;;;-145.72;88.97
28648;BME280;17137;51.494;-0.262;2023-08-17T00:56:04;49947.01;;;-145.72;89.36
28648;BME280;17137;51.494;-0.262;2023-08-17T00:56:34;49940.48;;;-145.72;89.07
28648;BME280;17137;51.494;-0.262;2023-08-17T00:57:05;49936.54;;;-145.72;88.87
28648;BME280;17137;51.494;-0.262;2023-08-17T00:57:36;49939.62;;;-145.72;89.03
28648;BME280;17137;51.494;-0.262;2023-08-17T00:58:06;49941.34;;;-145.72;88.85
28648;BME280;17137;51.494;-0.262;2023-08-17T00:58:37;49943.07;;;-145.72;88.64
28648;BME280;17137;51.494;-0.262;2023-08-17T00:59:07;49945.16;;;-145.72;88.79
28648;BME280;17137;51.494;-0.262;2023-08-17T00:59:37;49951.33;;;-145.72;88.94
28648;BME280;17137;51.494;-0.262;2023-08-17T01:00:10;49947.01;;;-145.72;88.71
28648;BME280;17137;51.494;-0.262;2023-08-17T01:00:41;49949.48;;;-145.72;88.87
28648;BME280;17137;51.494;-0.262;2023-08-17T01:01:12;49945.16;;;-145.72;89.06
28648;BME280;17137;51.494;-0.262;2023-08-17T01:01:43;49939.86;;;-145.72;88.80
28648;BME280;17137;51.494;-0.262;2023-08-17T01:02:13;49942.95;;;-145.72;88.40
28648;BME280;17137;51.494;-0.262;2023-08-17T01:02:44;49938.14;;;-145.72;88.29
28648;BME280;17137;51.494;-0.262;2023-08-17T01:03:16;49948.74;;;-145.72;88.48
28648;BME280;17137;51.494;-0.262;2023-08-17T01:03:47;49936.91;;;-145.72;88.47
28648;BME280;17137;51.494;-0.262;2023-08-17T01:04:17;49947.51;;;-145.72;88.75
28648;BME280;17137;51.494;-0.262;2023-08-17T01:04:48;49942.33;;;-145.72;88.52
28648;BME280;17137;51.494;-0.262;2023-08-17T01:05:18;49942.95;;;-145.72;88.39
28648;BME280;17137;51.494;-0.262;2023-08-17T01:05:48;49944.67;;;-145.72;88.08
28648;BME280;17137;51.494;-0.262;2023-08-17T01:06:19;49938.02;;;-145.72;88.12
28648;BME280;17137;51.494;-0.262;2023-08-17T01:06:49;49937.03;;;-145.72;87.80
28648;BME280;17137;51.494;-0.262;2023-08-17T01:07:20;49937.89;;;-145.72;87.74
28648;BME280;17137;51.494;-0.262;2023-08-17T01:07:51;49939.86;;;-145.72;88.26
28648;BME280;17137;51.494;-0.262;2023-08-17T01:08:21;49949.23;;;-145.72;88.74
28648;BME280;17137;51.494;-0.262;2023-08-17T01:08:51;49949.11;;;-145.72;88.54
28648;BME280;17137;51.494;-0.262;2023-08-17T01:09:22;49949.36;;;-145.72;88.72
28648;BME280;17137;51.494;-0.262;2023-08-17T01:09:52;49947.14;;;-145.72;88.49
28648;BME280;17137;51.494;-0.262;2023-08-17T01:10:23;49940.23;;;-145.72;88.37
28648;BME280;17137;51.494;-0.262;2023-08-17T01:11:05;49946.03;;;-145.72;88.59
28648;BME280;17137;51.494;-0.262;2023-08-17T01:11:47;49954.04;;;-145.72;89.61
28648;BME280;17137;51.494;-0.262;2023-08-17T01:12:24;49950.71;;;-145.72;89.68
28648;BME280;17137;51.494;-0.262;2023-08-17T01:13:04;49959.71;;;-145.72;89.24
28648;BME280;17137;51.494;-0.262;2023-08-17T01:13:44;49950.96;;;-145.72;88.99
28648;BME280;17137;51.494;-0.262;2023-08-17T01:14:23;49950.46;;;-145.72;88.91
28648;BME280;17137;51.494;-0.262;2023-08-17T01:15:05;49957.37;;;-145.72;88.85
28648;BME280;17137;51.494;-0.262;2023-08-17T01:15:42;49959.34;;;-145.72;89.10
28648;BME280;17137;51.494;-0.262;2023-08-17T01:16:19;49952.81;;;-145.72;89.00
28648;BME280;17137;51.494;-0.262;2023-08-17T01:16:55;49954.04;;;-145.72;89.13
28648;BME280;17137;51.494;-0.262;2023-08-17T01:17:31;49957.98;;;-145.72;89.39
28648;BME280;17137;51.494;-0.262;2023-08-17T01:18:15;49963.53;;;-145.72;89.71
28648;BME280;17137;51.494;-0.262;2023-08-17T01:18:48;49961.93;;;-145.72;89.60
28648;BME280;17137;51.494;-0.262;2023-08-17T01:19:26;49964.64;;;-145.72;89.46
28648;BME280;17137;51.494;-0.262;2023-08-17T01:19:57;49956.75;;;-145.72;89.12
28648;BME280;17137;51.494;-0.262;2023-08-17T01:20:29;49964.02;;;-145.72;89.14
28648;BME280;17137;51.494;-0.262;2023-08-17T01:21:05;49949.60;;;-145.72;89.21
28648;BME280;17137;51.494;-0.262;2023-08-17T01:21:41;49962.79;;;-145.72;89.85
28648;BME280;17137;51.494;-0.262;2023-08-17T01:22:14;49962.17;;;-145.72;89.93
28648;BME280;17137;51.494;-0.262;2023-08-17T01:22:50;49967.72;;;-145.72;89.83
28648;BME280;17137;51.494;-0.262;2023-08-17T01:23:21;49967.35;;;-145.72;89.90
28648;BME280;17137;51.494;-0.262;2023-08-17T01:23:58;49958.97;;;-145.72;89.56
28648;BME280;17137;51.494;-0.262;2023-08-17T01:24:28;49959.34;;;-145.72;89.58
28648;BME280;17137;51.494;-0.262;2023-08-17T01:24:58;49958.72;;;-145.72;89.45
28648;BME280;17137;51.494;-0.262;2023-08-17T01:25:28;49962.79;;;-145.72;89.53
28648;BME280;17137;51.494;-0.262;2023-08-17T01:25:59;49971.17;;;-145.72;90.20
28648;BME280;17137;51.494;-0.262;2023-08-17T01:26:29;49967.72;;;-145.72;89.86
28648;BME280;17137;51.494;-0.262;2023-08-17T01:26:59;49961.31;;;-145.72;89.89
28648;BME280;17137;51.494;-0.262;2023-08-17T01:27:44;49968.95;;;-145.72;89.72
28648;BME280;17137;51.494;-0.262;2023-08-17T01:28:15;49966.12;;;-145.72;89.65
28648;BME280;17137;51.494;-0.262;2023-08-17T01:28:47;49961.19;;;-145.72;89.87
28648;BME280;17137;51.494;-0.262;2023-08-17T01:29:17;49968.71;;;-145.72;89.81
28648;BME280;17137;51.494;-0.262;2023-08-17T01:29:48;49960.82;;;-145.72;89.81
28648;BME280;17137;51.494;-0.262;2023-08-17T01:30:18;49956.75;;;-145.72;89.63
28648;BME280;17137;51.494;-0.262;2023-08-17T01:30:55;49963.53;;;-145.72;89.50
28648;BME280;17137;51.494;-0.262;2023-08-17T01:31:31;49959.09;;;-145.72;89.41
28648;BME280;17137;51.494;-0.262;2023-08-17T01:32:09;49972.90;;;-145.72;89.50
28648;BME280;17137;51.494;-0.262;2023-08-17T01:32:47;49970.43;;;-145.72;89.78
28648;BME280;17137;51.494;-0.262;2023-08-17T01:33:28;49967.35;;;-145.72;89.66
28648;BME280;17137;51.494;-0.262;2023-08-17T01:34:03;49964.76;;;-145.72;89.42
28648;BME280;17137;51.494;-0.262;2023-08-17T01:34:38;49965.01;;;-145.72;89.36
28648;BME280;17137;51.494;-0.262;2023-08-17T01:35:14;49966.24;;;-145.72;89.36
28648;BME280;17137;51.494;-0.262;2023-08-17T01:35:48;49963.28;;;-145.72;89.12
28648;BME280;17137;51.494;-0.262;2023-08-17T01:36:26;49959.59;;;-145.72;89.32
28648;BME280;17137;51.494;-0.262;2023-08-17T01:37:01;49971.30;;;-145.72;89.33
28648;BME280;17137;51.494;-0.262;2023-08-17T01:37:33;49974.75;;;-145.72;89.22
28648;BME280;17137;51.494;-0.262;2023-08-17T01:38:07;49968.09;;;-145.72;89.33
28648;BME280;17137;51.494;-0.262;2023-08-17T01:38:40;49974.38;;;-145.72;89.32
28648;BME280;17137;51.494;-0.262;2023-08-17T01:39:13;49969.94;;;-145.72;89.32
28648;BME280;17137;51.494;-0.262;2023-08-17T01:39:51;49975.24;;;-145.72;89.51
28648;BME280;17137;51.494;-0.262;2023-08-17T01:40:23;49968.71;;;-145.72;89.33
28648;BME280;17137;51.494;-0.262;2023-08-17T01:40:55;49971.54;;;-145.72;89.43
28648;BME280;17137;51.494;-0.262;2023-08-17T01:41:27;49979.18;;;-145.72;90.13
28648;BME280;17137;51.494;-0.262;2023-08-17T01:41:58;49972.90;;;-145.72;89.83
28648;BME280;17137;51.494;-0.262;2023-08-17T01:42:30;49983.00;;;-145.72;89.59
28648;BME280;17137;51.494;-0.262;2023-08-17T01:43:02;49978.57;;;-145.72;89.34
28648;BME280;17137;51.494;-0.262;2023-08-17T01:43:33;49974.99;;;-145.72;89.22
28648;BME280;17137;51.494;-0.262;2023-08-17T01:44:04;49967.84;;;-145.72;89.06
28648;BME280;17137;51.494;-0.262;2023-08-17T01:44:35;49974.13;;;-145.72;89.17
28648;BME280;17137;51.494;-0.262;2023-08-17T01:45:07;49983.62;;;-145.72;90.12
28648;BME280;17137;51.494;-0.262;2023-08-17T01:45:37;49993.24;;;-145.72;90.79
28648;BME280;17137;51.494;-0.262;2023-08-17T01:46:08;49983.37;;;-145.72;90.84
28648;BME280;17137;51.494;-0.262;2023-08-17T01:46:39;49989.54;;;-145.72;90.73
28648;BME280;17137;51.494;-0.262;2023-08-17T01:47:09;49982.88;;;-145.72;90.31
28648;BME280;17137;51.494;-0.262;2023-08-17T01:47:39;49979.80;;;-145.72;90.11
28648;BME280;17137;51.494;-0.262;2023-08-17T01:48:10;49975.86;;;-145.72;89.98
28648;BME280;17137;51.494;-0.262;2023-08-17T01:48:40;49975.49;;;-145.72;89.82
28648;BME280;17137;51.494;-0.262;2023-08-17T01:49:12;49976.60;;;-145.72;89.77
28648;BME280;17137;51.494;-0.262;2023-08-17T01:49:42;49977.21;;;-145.72;90.04
28648;BME280;17137;51.494;-0.262;2023-08-17T01:50:12;49965.01;;;-145.72;90.10
28648;BME280;17137;51.494;-0.262;2023-08-17T01:50:43;49998.54;;;-145.72;90.89
28648;BME280;17137;51.494;-0.262;2023-08-17T01:51:17;49976.72;;;-145.72;90.37
28648;BME280;17137;51.494;-0.262;2023-08-17T01:51:48;49980.05;;;-145.72;90.09
28648;BME280;17137;51.494;-0.262;2023-08-17T01:52:18;49983.99;;;-145.72;90.32
28648;BME280;17137;51.494;-0.262;2023-08-17T01:52:48;49993.24;;;-145.72;91.11
28648;BME280;17137;51.494;-0.262;2023-08-17T01:53:19;49991.14;;;-145.72;90.89
28648;BME280;17137;51.494;-0.262;2023-08-17T01:53:49;49983.62;;;-145.72;91.43
28648;BME280;17137;51.494;-0.262;2023-08-17T01:54:19;49984.73;;;-145.72;91.19
28648;BME280;17137;51.494;-0.262;2023-08-17T01:54:50;49981.90;;;-145.72;90.69
28648;BME280;17137;51.494;-0.262;2023-08-17T01:55:21;49990.15;;;-145.72;90.51
28648;BME280;17137;51.494;-0.262;2023-08-17T01:55:52;49983.99;;;-145.72;90.50
28648;BME280;17137;51.494;-0.262;2023-08-17T01:56:22;49981.03;;;-145.72;90.16
28648;BME280;17137;51.494;-0.262;2023-08-17T01:56:52;49984.48;;;-145.72;90.64
28648;BME280;17137;51.494;-0.262;2023-08-17T01:57:22;49977.09;;;-145.72;91.29
28648;BME280;17137;51.494;-0.262;2023-08-17T01:57:53;49987.81;;;-145.72;91.69
28648;BME280;17137;51.494;-0.262;2023-08-17T01:58:23;49987.57;;;-145.72;91.30
28648;BME280;17137;51.494;-0.262;2023-08-17T01:58:54;49986.09;;;-145.72;91.18
28648;BME280;17137;51.494;-0.262;2023-08-17T01:59:24;49996.44;;;-145.72;91.11
28648;BME280;17137;51.494;-0.262;2023-08-17T01:59:54;49995.08;;;-145.72;91.19
28648;BME280;17137;51.494;-0.262;2023-08-17T02:00:24;49981.90;;;-145.72;91.16
28648;BME280;17137;51.494;-0.262;2023-08-17T02:00:55;49987.94;;;-145.72;90.95
28648;BME280;17137;51.494;-0.262;2023-08-17T02:01:25;49993.61;;;-145.72;91.54
28648;BME280;17137;51.494;-0.262;2023-08-17T02:01:55;49996.81;;;-145.72;91.38
28648;BME280;17137;51.494;-0.262;2023-08-17T02:02:25;49975.98;;;-145.72;91.13
28648;BME280;17137;51.494;-0.262;2023-08-17T02:02:56;49980.66;;;-145.72;91.30
28648;BME280;17137;51.494;-0.262;2023-08-17T02:03:26;49988.67;;;-145.72;91.17
28648;BME280;17137;51.494;-0.262;2023-08-17T02:03:56;49986.70;;;-145.72;90.93
28648;BME280;17137;51.494;-0.262;2023-08-17T02:04:26;49979.80;;;-145.72;91.01
28648;BME280;17137;51.494;-0.262;2023-08-17T02:04:57;49977.58;;;-145.72;91.02
28648;BME280;17137;51.494;-0.262;2023-08-17T02:05:27;49987.07;;;-145.72;91.18
28648;BME280;17137;51.494;-0.262;2023-08-17T02:05:57;49991.88;;;-145.72;91.20
28648;BME280;17137;51.494;-0.262;2023-08-17T02:06:28;49988.92;;;-145.72;91.04
28648;BME280;17137;51.494;-0.262;2023-08-17T02:06:58;49989.29;;;-145.72;91.05
28648;BME280;17137;51.494;-0.262;2023-08-17T02:07:28;49974.87;;;-145.72;91.04
28648;BME280;17137;51.494;-0.262;2023-08-17T02:07:59;49986.95;;;-145.72;91.08
28648;BME280;17137;51.494;-0.262;2023-08-17T02:08:29;49982.88;;;-145.72;91.11
28648;BME280;17137;51.494;-0.262;2023-08-17T02:09:00;49984.36;;;-145.72;91.08
28648;BME280;17137;51.494;-0.262;2023-08-17T02:09:30;49972.65;;;-145.72;91.04
28648;BME280;17137;51.494;-0.262;2023-08-17T02:10:00;49980.17;;;-145.72;90.94
28648;BME280;17137;51.494;-0.262;2023-08-17T02:10:31;49973.64;;;-145.72;90.93
28648;BME280;17137;51.494;-0.262;2023-08-17T02:11:01;49976.23;;;-145.72;90.92
28648;BME280;17137;51.494;-0.262;2023-08-17T02:11:31;49979.68;;;-145.72;90.88
28648;BME280;17137;51.494;-0.262;2023-08-17T02:12:02;49981.77;;;-145.72;91.08
28648;BME280;17137;51.494;-0.262;2023-08-17T02:12:32;49991.39;;;-145.72;91.16
28648;BME280;17137;51.494;-0.262;2023-08-17T02:13:03;49976.10;;;-145.72;90.89
28648;BME280;17137;51.494;-0.262;2023-08-17T02:13:33;49989.17;;;-145.72;91.08
28648;BME280;17137;51.494;-0.262;2023-08-17T02:14:03;49983.13;;;-145.72;91.12
28648;BME280;17137;51.494;-0.262;2023-08-17T02:14:34;49977.95;;;-145.72;91.06
28648;BME280;17137;51.494;-0.262;2023-08-17T02:15:05;49978.20;;;-145.72;90.80
28648;BME280;17137;51.494;-0.262;2023-08-17T02:15:38;49985.96;;;-145.72;91.52
28648;BME280;17137;51.494;-0.262;2023-08-17T02:16:08;49981.90;;;-145.72;91.41
28648;BME280;17137;51.494;-0.262;2023-08-17T02:16:39;49982.76;;;-145.72;91.27
28648;BME280;17137;51.494;-0.262;2023-08-17T02:17:09;49977.46;;;-145.72;91.20
28648;BME280;17137;51.494;-0.262;2023-08-17T02:17:39;49978.44;;;-145.72;91.05
28648;BME280;17137;51.494;-0.262;2023-08-17T02:18:09;49981.16;;;-145.72;91.01
28648;BME280;17137;51.494;-0.262;2023-08-17T02:18:40;49977.95;;;-145.72;90.95
28648;BME280;17137;51.494;-0.262;2023-08-17T02:19:10;49978.94;;;-145.72;90.92
28648;BME280;17137;51.494;-0.262;2023-08-17T02:19:41;49980.66;;;-145.72;91.34
28648;BME280;17137;51.494;-0.262;2023-08-17T02:20:12;49990.65;;;-145.72;92.17
28648;BME280;17137;51.494;-0.262;2023-08-17T02:20:42;49994.22;;;-145.72;92.00
28648;BME280;17137;51.494;-0.262;2023-08-17T02:21:12;49983.50;;;-145.72;91.95
28648;BME280;17137;51.494;-0.262;2023-08-17T02:21:43;49983.50;;;-145.72;91.86
28648;BME280;17137;51.494;-0.262;2023-08-17T02:22:13;49974.01;;;-145.72;91.82
28648;BME280;17137;51.494;-0.262;2023-08-17T02:22:43;49988.06;;;-145.72;91.78
28648;BME280;17137;51.494;-0.262;2023-08-17T02:23:14;49994.96;;;-145.72;92.43
28648;BME280;17137;51.494;-0.262;2023-08-17T02:23:44;49993.36;;;-145.72;92.29
28648;BME280;17137;51.494;-0.262;2023-08-17T02:24:14;49982.76;;;-145.72;92.27
28648;BME280;17137;51.494;-0.262;2023-08-17T02:24:45;50000.63;;;-145.72;92.41
28648;BME280;17137;51.494;-0.262;2023-08-17T02:25:15;49992.99;;;-145.72;92.73
28648;BME280;17137;51.494;-0.262;2023-08-17T02:25:45;49984.48;;;-145.72;92.57
28648;BME280;17137;51.494;-0.262;2023-08-17T02:26:16;49982.64;;;-145.72;92.49
28648;BME280;17137;51.494;-0.262;2023-08-17T02:26:46;49980.05;;;-145.72;92.54
28648;BME280;17137;51.494;-0.262;2023-08-17T02:27:16;49991.51;;;-145.72;92.64
28648;BME280;17137;51.494;-0.262;2023-08-17T02:27:46;49998.04;;;-145.72;92.87
28648;BME280;17137;51.494;-0.262;2023-08-17T02:28:17;49992.37;;;-145.72;92.70
28648;BME280;17137;51.494;-0.262;2023-08-17T02:28:47;50000.01;;;-145.72;92.82
28648;BME280;17137;51.494;-0.262;2023-08-17T02:29:17;49990.52;;;-145.72;92.87
28648;BME280;17137;51.494;-0.262;2023-08-17T02:29:47;50000.01;;;-145.72;93.06
28648;BME280;17137;51.494;-0.262;2023-08-17T02:30:18;49993.24;;;-145.72;93.03
28648;BME280;17137;51.494;-0.262;2023-08-17T02:30:48;49988.80;;;-145.72;93.01
28648;BME280;17137;51.494;-0.262;2023-08-17T02:31:19;49984.61;;;-145.72;92.73
28648;BME280;17137;51.494;-0.262;2023-08-17T02:31:49;49991.14;;;-145.72;92.53
28648;BME280;17137;51.494;-0.262;2023-08-17T02:32:19;49988.43;;;-145.72;92.85
28648;BME280;17137;51.494;-0.262;2023-08-17T02:32:49;49995.58;;;-145.72;92.62
28648;BME280;17137;51.494;-0.262;2023-08-17T02:33:20;49993.61;;;-145.72;93.19
28648;BME280;17137;51.494;-0.262;2023-08-17T02:33:50;49986.21;;;-145.72;93.07
28648;BME280;17137;51.494;-0.262;2023-08-17T02:34:20;49993.73;;;-145.72;92.84
28648;BME280;17137;51.494;-0.262;2023-08-17T02:34:50;49987.57;;;-145.72;93.47
28648;BME280;17137;51.494;-0.262;2023-08-17T02:35:21;50000.14;;;-145.72;93.56
28648;BME280;17137;51.494;-0.262;2023-08-17T02:35:52;49983.62;;;-145.72;93.20
28648;BME280;17137;51.494;-0.262;2023-08-17T02:36:22;49992.74;;;-145.72;92.98
28648;BME280;17137;51.494;-0.262;2023-08-17T02:36:52;49993.85;;;-145.72;92.92
28648;BME280;17137;51.494;-0.262;2023-08-17T02:37:23;49995.33;;;-145.72;92.92
28648;BME280;17137;51.494;-0.262;2023-08-17T02:37:53;50006.05;;;-145.72;93.66
28648;BME280;17137;51.494;-0.262;2023-08-17T02:38:23;50002.73;;;-145.72;93.31
28648;BME280;17137;51.494;-0.262;2023-08-17T02:38:59;49993.73;;;-145.72;93.07
28648;BME280;17137;51.494;-0.262;2023-08-17T02:39:29;49994.10;;;-145.72;92.90
28648;BME280;17137;51.494;-0.262;2023-08-17T02:40:00;49988.92;;;-145.72;92.71
28648;BME280;17137;51.494;-0.262;2023-08-17T02:40:30;49998.41;;;-145.72;93.29